Rotterdam, Netherlands
Current Conditions -  °F | °C
As of 10:55 PM on Friday 24 Oct 2014 (Local Time) from EHRD Reporting Station
Rain Showers Rain Showers  
Wind Chill: 54°   Ceiling: 700
Heat Index: 54°   Visibility: 6mi
Dew Point: 52°   Wind: 13mph
Humidity: 94%   Direction: 200°SSW
Pressure: 29.97"   Gusts: NA
Location:  51.92°N, 4.27°E
Report Text: EHRD 242055Z AUTO 20011KT 160V230 9999 -SHRA SCT006 BKN007BKN009 BKN015CB 12/11 Q1015 RERA TEMPO 6000
Loading
Personal Weather Stations






























Interactive Weather Map
Tropical Storm Tracking
New forecast layout! Learn more

10-Day Weather Forecast

Advertisements
Track Severe Weather on mobile